sensor_id;sensor_type;location;lat;lon;timestamp;pressure;altitude;pressure_sealevel;temperature;humidity
22259;BME280;11298;46.034;14.496;2022-07-29T00:01:02;98152.56;;;21.99;68.72
22259;BME280;11298;46.034;14.496;2022-07-29T00:03:29;98150.91;;;21.98;68.28
22259;BME280;11298;46.034;14.496;2022-07-29T00:05:56;98149.00;;;21.93;68.64
22259;BME280;11298;46.034;14.496;2022-07-29T00:08:23;98149.00;;;21.93;68.45
22259;BME280;11298;46.034;14.496;2022-07-29T00:10:50;98150.69;;;21.89;68.54
22259;BME280;11298;46.034;14.496;2022-07-29T00:13:17;98150.44;;;21.86;68.59
22259;BME280;11298;46.034;14.496;2022-07-29T00:15:58;98152.44;;;21.80;68.80
22259;BME280;11298;46.034;14.496;2022-07-29T00:18:31;98155.50;;;21.79;69.30
22259;BME280;11298;46.034;14.496;2022-07-29T00:20:59;98150.78;;;21.79;69.07
22259;BME280;11298;46.034;14.496;2022-07-29T00:23:26;98157.72;;;21.77;68.78
22259;BME280;11298;46.034;14.496;2022-07-29T00:25:53;98155.28;;;21.70;68.43
22259;BME280;11298;46.034;14.496;2022-07-29T00:28:20;98153.63;;;21.69;67.99
22259;BME280;11298;46.034;14.496;2022-07-29T00:30:47;98157.25;;;21.64;68.08
22259;BME280;11298;46.034;14.496;2022-07-29T00:33:14;98150.38;;;21.57;69.18
22259;BME280;11298;46.034;14.496;2022-07-29T00:35:41;98147.09;;;21.50;69.57
22259;BME280;11298;46.034;14.496;2022-07-29T00:38:16;98142.38;;;21.55;69.22
22259;BME280;11298;46.034;14.496;2022-07-29T00:40:44;98149.88;;;21.50;69.21
22259;BME280;11298;46.034;14.496;2022-07-29T00:43:12;98148.38;;;21.23;69.78
22259;BME280;11298;46.034;14.496;2022-07-29T00:45:42;98145.41;;;21.10;70.65
22259;BME280;11298;46.034;14.496;2022-07-29T00:48:09;98139.31;;;21.13;70.83
22259;BME280;11298;46.034;14.496;2022-07-29T00:50:37;98134.28;;;21.20;70.71
22259;BME280;11298;46.034;14.496;2022-07-29T00:53:06;98133.75;;;21.23;70.77
22259;BME280;11298;46.034;14.496;2022-07-29T00:55:34;98137.03;;;21.25;70.57
22259;BME280;11298;46.034;14.496;2022-07-29T00:58:02;98133.75;;;21.23;70.56
22259;BME280;11298;46.034;14.496;2022-07-29T01:00:29;98130.69;;;21.24;70.36
22259;BME280;11298;46.034;14.496;2022-07-29T01:02:57;98132.34;;;21.20;70.11
22259;BME280;11298;46.034;14.496;2022-07-29T01:05:26;98134.34;;;21.10;70.65
22259;BME280;11298;46.034;14.496;2022-07-29T01:08:15;98132.72;;;20.98;71.71
22259;BME280;11298;46.034;14.496;2022-07-29T01:10:44;98124.16;;;21.00;71.69
22259;BME280;11298;46.034;14.496;2022-07-29T01:13:13;98124.72;;;21.02;71.50
22259;BME280;11298;46.034;14.496;2022-07-29T01:15:49;98127.22;;;20.98;71.71
22259;BME280;11298;46.034;14.496;2022-07-29T01:18:30;98125.56;;;20.97;71.77
22259;BME280;11298;46.034;14.496;2022-07-29T01:26:57;98112.34;;;20.89;72.66
22259;BME280;11298;46.034;14.496;2022-07-29T01:32:13;98116.50;;;20.87;71.67
22259;BME280;11298;46.034;14.496;2022-07-29T01:34:55;98106.28;;;20.82;74.62
22259;BME280;11298;46.034;14.496;2022-07-29T01:40:20;98104.09;;;20.84;76.46
22259;BME280;11298;46.034;14.496;2022-07-29T01:42:52;98108.50;;;20.80;76.38
22259;BME280;11298;46.034;14.496;2022-07-29T01:45:38;98104.97;;;20.74;75.94
22259;BME280;11298;46.034;14.496;2022-07-29T01:48:21;98100.56;;;20.68;74.76
22259;BME280;11298;46.034;14.496;2022-07-29T01:50:53;98092.59;;;20.62;75.76
22259;BME280;11298;46.034;14.496;2022-07-29T01:53:38;98089.84;;;20.57;76.09
22259;BME280;11298;46.034;14.496;2022-07-29T01:56:10;98091.25;;;20.54;73.92
22259;BME280;11298;46.034;14.496;2022-07-29T01:58:40;98083.84;;;20.39;74.73
22259;BME280;11298;46.034;14.496;2022-07-29T02:01:12;98087.69;;;20.28;76.08
22259;BME280;11298;46.034;14.496;2022-07-29T02:03:43;98081.09;;;20.29;76.42
22259;BME280;11298;46.034;14.496;2022-07-29T02:06:12;98084.09;;;20.33;75.77
22259;BME280;11298;46.034;14.496;2022-07-29T02:08:42;98095.41;;;20.31;76.98
22259;BME280;11298;46.034;14.496;2022-07-29T02:11:10;98093.50;;;20.32;76.10
22259;BME280;11298;46.034;14.496;2022-07-29T02:13:38;98094.31;;;20.32;76.38
22259;BME280;11298;46.034;14.496;2022-07-29T02:16:06;98098.72;;;20.33;76.92
22259;BME280;11298;46.034;14.496;2022-07-29T02:18:36;98094.03;;;20.34;76.67
22259;BME280;11298;46.034;14.496;2022-07-29T02:21:04;98091.84;;;20.31;76.53
22259;BME280;11298;46.034;14.496;2022-07-29T02:23:41;98088.81;;;20.17;76.61
22259;BME280;11298;46.034;14.496;2022-07-29T02:26:18;98080.00;;;20.25;77.15
22259;BME280;11298;46.034;14.496;2022-07-29T02:28:49;98082.75;;;20.20;76.33
22259;BME280;11298;46.034;14.496;2022-07-29T02:31:18;98082.47;;;20.22;76.29
22259;BME280;11298;46.034;14.496;2022-07-29T02:33:48;98081.09;;;20.19;76.05
22259;BME280;11298;46.034;14.496;2022-07-29T02:36:17;98088.81;;;20.17;75.30
22259;BME280;11298;46.034;14.496;2022-07-29T02:38:46;98079.72;;;20.17;76.09
22259;BME280;11298;46.034;14.496;2022-07-29T02:41:31;98082.22;;;20.13;75.91
22259;BME280;11298;46.034;14.496;2022-07-29T02:44:10;98090.53;;;20.03;76.58
22259;BME280;11298;46.034;14.496;2022-07-29T02:46:45;98087.22;;;20.06;76.44
22259;BME280;11298;46.034;14.496;2022-07-29T02:51:55;98087.75;;;20.03;75.24
22259;BME280;11298;46.034;14.496;2022-07-29T02:57:09;98088.59;;;19.83;76.48
22259;BME280;11298;46.034;14.496;2022-07-29T02:59:41;98081.19;;;19.73;77.02
22259;BME280;11298;46.034;14.496;2022-07-29T03:02:11;98087.78;;;19.72;77.28
22259;BME280;11298;46.034;14.496;2022-07-29T03:04:42;98087.78;;;19.57;77.49
22259;BME280;11298;46.034;14.496;2022-07-29T03:07:13;98087.50;;;19.64;78.05
22259;BME280;11298;46.034;14.496;2022-07-29T03:09:42;98086.69;;;19.68;77.53
22259;BME280;11298;46.034;14.496;2022-07-29T03:12:10;98091.63;;;19.61;77.92
22259;BME280;11298;46.034;14.496;2022-07-29T03:14:38;98090.53;;;19.57;77.92
22259;BME280;11298;46.034;14.496;2022-07-29T03:17:05;98090.53;;;19.62;77.35
22259;BME280;11298;46.034;14.496;2022-07-29T03:19:33;98091.63;;;19.61;76.51
22259;BME280;11298;46.034;14.496;2022-07-29T03:22:00;98090.53;;;19.67;76.18
22259;BME280;11298;46.034;14.496;2022-07-29T03:24:33;98086.13;;;19.66;75.95
22259;BME280;11298;46.034;14.496;2022-07-29T03:27:01;98091.63;;;19.61;76.00
22259;BME280;11298;46.034;14.496;2022-07-29T03:29:28;98088.88;;;19.56;77.26
22259;BME280;11298;46.034;14.496;2022-07-29T03:32:05;98084.75;;;19.54;77.03
22259;BME280;11298;46.034;14.496;2022-07-29T03:34:36;98093.00;;;19.59;77.21
22259;BME280;11298;46.034;14.496;2022-07-29T03:37:04;98090.25;;;19.59;77.34
22259;BME280;11298;46.034;14.496;2022-07-29T03:39:38;98090.22;;;19.49;77.26
22259;BME280;11298;46.034;14.496;2022-07-29T03:42:08;98094.34;;;19.36;78.19
22259;BME280;11298;46.034;14.496;2022-07-29T03:44:37;98097.63;;;19.43;77.67
22259;BME280;11298;46.034;14.496;2022-07-29T03:47:06;98105.91;;;19.48;77.71
22259;BME280;11298;46.034;14.496;2022-07-29T03:49:36;98110.31;;;19.49;77.34
22259;BME280;11298;46.034;14.496;2022-07-29T03:52:05;98107.31;;;19.51;77.11
22259;BME280;11298;46.034;14.496;2022-07-29T03:54:33;98106.47;;;19.50;76.47
22259;BME280;11298;46.034;14.496;2022-07-29T03:57:01;98105.34;;;19.46;77.36
22259;BME280;11298;46.034;14.496;2022-07-29T03:59:30;98105.91;;;19.43;77.78
22259;BME280;11298;46.034;14.496;2022-07-29T04:01:57;98103.69;;;19.45;78.00
22259;BME280;11298;46.034;14.496;2022-07-29T04:04:26;98104.53;;;19.35;77.91
22259;BME280;11298;46.034;14.496;2022-07-29T04:06:54;98105.06;;;19.27;78.68
22259;BME280;11298;46.034;14.496;2022-07-29T04:09:21;98103.72;;;19.40;78.36
22259;BME280;11298;46.034;14.496;2022-07-29T04:11:48;98104.25;;;19.47;78.02
22259;BME280;11298;46.034;14.496;2022-07-29T04:14:31;98108.09;;;19.41;78.17
22259;BME280;11298;46.034;14.496;2022-07-29T04:16:59;98108.09;;;19.46;78.35
22259;BME280;11298;46.034;14.496;2022-07-29T04:19:27;98123.00;;;19.40;78.62
22259;BME280;11298;46.034;14.496;2022-07-29T04:21:53;98123.53;;;19.47;78.40
22259;BME280;11298;46.034;14.496;2022-07-29T04:24:21;98131.84;;;19.57;78.59
22259;BME280;11298;46.034;14.496;2022-07-29T04:26:48;98122.78;;;19.67;78.24
22259;BME280;11298;46.034;14.496;2022-07-29T04:29:15;98131.84;;;19.62;77.98
22259;BME280;11298;46.034;14.496;2022-07-29T04:31:42;98127.19;;;19.63;78.36
22259;BME280;11298;46.034;14.496;2022-07-29T04:34:10;98120.84;;;19.67;78.58
22259;BME280;11298;46.034;14.496;2022-07-29T04:36:38;98114.22;;;19.58;78.95
22259;BME280;11298;46.034;14.496;2022-07-29T04:39:06;98117.81;;;19.74;78.89
22259;BME280;11298;46.034;14.496;2022-07-29T04:41:33;98115.31;;;19.83;78.18
22259;BME280;11298;46.034;14.496;2022-07-29T04:44:00;98110.91;;;19.97;78.01
22259;BME280;11298;46.034;14.496;2022-07-29T04:46:38;98115.31;;;19.98;77.58
22259;BME280;11298;46.034;14.496;2022-07-29T04:49:05;98114.22;;;19.84;78.17
22259;BME280;11298;46.034;14.496;2022-07-29T04:51:32;98110.91;;;19.87;78.16
22259;BME280;11298;46.034;14.496;2022-07-29T04:53:59;98108.97;;;20.07;77.42
22259;BME280;11298;46.034;14.496;2022-07-29T04:56:26;98097.69;;;20.09;77.02
22259;BME280;11298;46.034;14.496;2022-07-29T04:58:53;98112.56;;;20.08;77.18
22259;BME280;11298;46.034;14.496;2022-07-29T05:01:21;98109.22;;;20.16;77.03
22259;BME280;11298;46.034;14.496;2022-07-29T05:03:47;98097.69;;;20.09;77.24
22259;BME280;11298;46.034;14.496;2022-07-29T05:06:15;98080.81;;;20.16;77.11
22259;BME280;11298;46.034;14.496;2022-07-29T05:08:42;98079.19;;;20.15;77.30
22259;BME280;11298;46.034;14.496;2022-07-29T05:11:09;98088.28;;;20.10;77.20
22259;BME280;11298;46.034;14.496;2022-07-29T05:13:39;98079.44;;;20.28;77.51
22259;BME280;11298;46.034;14.496;2022-07-29T05:16:13;98060.97;;;20.24;77.95
22259;BME280;11298;46.034;14.496;2022-07-29T05:18:41;98051.84;;;20.28;77.65
22259;BME280;11298;46.034;14.496;2022-07-29T05:21:09;98059.56;;;20.36;76.87
22259;BME280;11298;46.034;14.496;2022-07-29T05:23:36;98089.84;;;20.62;76.52
22259;BME280;11298;46.034;14.496;2022-07-29T05:26:03;98102.69;;;20.87;74.98
22259;BME280;11298;46.034;14.496;2022-07-29T05:28:34;98096.59;;;20.90;74.00
22259;BME280;11298;46.034;14.496;2022-07-29T05:31:01;98086.38;;;20.90;73.94
22259;BME280;11298;46.034;14.496;2022-07-29T05:33:29;98099.56;;;21.08;73.95
22259;BME280;11298;46.034;14.496;2022-07-29T05:36:05;98104.47;;;21.22;73.68
22259;BME280;11298;46.034;14.496;2022-07-29T05:38:35;98129.03;;;21.23;73.43
22259;BME280;11298;46.034;14.496;2022-07-29T05:41:02;98126.28;;;21.18;73.74
22259;BME280;11298;46.034;14.496;2022-07-29T05:43:30;98119.97;;;21.13;74.16
22259;BME280;11298;46.034;14.496;2022-07-29T05:45:57;98128.06;;;20.94;74.38
22259;BME280;11298;46.034;14.496;2022-07-29T05:48:24;98123.91;;;20.96;74.74
22259;BME280;11298;46.034;14.496;2022-07-29T05:50:52;98122.53;;;20.94;74.22
22259;BME280;11298;46.034;14.496;2022-07-29T05:53:19;98126.13;;;20.94;74.75
22259;BME280;11298;46.034;14.496;2022-07-29T05:55:47;98112.88;;;20.96;74.42
22259;BME280;11298;46.034;14.496;2022-07-29T05:58:15;98118.63;;;21.05;74.44
22259;BME280;11298;46.034;14.496;2022-07-29T06:00:42;98123.59;;;21.03;73.96
22259;BME280;11298;46.034;14.496;2022-07-29T06:03:09;98118.59;;;21.10;74.13
22259;BME280;11298;46.034;14.496;2022-07-29T06:05:36;98129.31;;;21.22;74.18
22259;BME280;11298;46.034;14.496;2022-07-29T06:08:03;98136.75;;;21.31;74.13
22259;BME280;11298;46.034;14.496;2022-07-29T06:10:37;98125.59;;;21.47;73.80
22259;BME280;11298;46.034;14.496;2022-07-29T06:13:04;98132.13;;;21.61;72.86
22259;BME280;11298;46.034;14.496;2022-07-29T06:15:32;98136.97;;;21.79;72.05
22259;BME280;11298;46.034;14.496;2022-07-29T06:18:00;98143.81;;;22.21;69.53
22259;BME280;11298;46.034;14.496;2022-07-29T06:20:29;98142.81;;;22.40;69.10
22259;BME280;11298;46.034;14.496;2022-07-29T06:22:58;98140.06;;;22.64;68.33
22259;BME280;11298;46.034;14.496;2022-07-29T06:25:25;98143.38;;;22.90;67.02
22259;BME280;11298;46.034;14.496;2022-07-29T06:27:53;98140.31;;;23.16;66.64
22259;BME280;11298;46.034;14.496;2022-07-29T06:30:20;98138.53;;;23.44;66.22
22259;BME280;11298;46.034;14.496;2022-07-29T06:32:47;98137.03;;;23.70;62.85
22259;BME280;11298;46.034;14.496;2022-07-29T06:35:14;98140.44;;;23.99;63.38
22259;BME280;11298;46.034;14.496;2022-07-29T06:38:03;98154.97;;;24.10;60.83
22259;BME280;11298;46.034;14.496;2022-07-29T06:40:50;98155.38;;;24.36;61.44
22259;BME280;11298;46.034;14.496;2022-07-29T06:43:37;98168.69;;;24.53;60.06
22259;BME280;11298;46.034;14.496;2022-07-29T06:46:21;98160.06;;;24.54;60.12
22259;BME280;11298;46.034;14.496;2022-07-29T06:48:49;98166.44;;;24.55;60.18
22259;BME280;11298;46.034;14.496;2022-07-29T06:51:16;98165.09;;;24.66;59.42
22259;BME280;11298;46.034;14.496;2022-07-29T06:53:51;98164.13;;;24.89;58.43
22259;BME280;11298;46.034;14.496;2022-07-29T06:56:33;98167.22;;;25.15;58.09
22259;BME280;11298;46.034;14.496;2022-07-29T06:59:09;98164.09;;;25.30;57.22
22259;BME280;11298;46.034;14.496;2022-07-29T07:01:42;98168.13;;;25.38;57.99
22259;BME280;11298;46.034;14.496;2022-07-29T07:04:10;98163.88;;;25.41;57.51
22259;BME280;11298;46.034;14.496;2022-07-29T07:06:38;98172.94;;;25.60;57.14
22259;BME280;11298;46.034;14.496;2022-07-29T07:09:05;98169.38;;;25.82;55.30
22259;BME280;11298;46.034;14.496;2022-07-29T07:11:32;98166.47;;;25.87;55.92
22259;BME280;11298;46.034;14.496;2022-07-29T07:13:59;98167.75;;;25.81;56.17
22259;BME280;11298;46.034;14.496;2022-07-29T07:16:30;98161.19;;;25.99;55.61
22259;BME280;11298;46.034;14.496;2022-07-29T07:18:58;98160.56;;;26.24;54.34
22259;BME280;11298;46.034;14.496;2022-07-29T07:21:26;98162.00;;;26.44;52.81
22259;BME280;11298;46.034;14.496;2022-07-29T07:23:56;98160.97;;;26.62;52.78
22259;BME280;11298;46.034;14.496;2022-07-29T07:26:23;98163.75;;;26.62;53.42
22259;BME280;11298;46.034;14.496;2022-07-29T07:28:50;98159.84;;;26.63;52.69
22259;BME280;11298;46.034;14.496;2022-07-29T07:31:17;98160.59;;;26.86;52.47
22259;BME280;11298;46.034;14.496;2022-07-29T07:33:44;98159.19;;;27.06;53.44
22259;BME280;11298;46.034;14.496;2022-07-29T07:36:11;98152.50;;;27.07;52.46
22259;BME280;11298;46.034;14.496;2022-07-29T07:38:38;98160.78;;;27.38;54.04
22259;BME280;11298;46.034;14.496;2022-07-29T07:41:05;98157.50;;;27.36;51.10
22259;BME280;11298;46.034;14.496;2022-07-29T07:43:32;98163.47;;;27.78;50.33
22259;BME280;11298;46.034;14.496;2022-07-29T07:45:59;98163.81;;;28.19;50.28
22259;BME280;11298;46.034;14.496;2022-07-29T07:48:27;98169.03;;;28.55;47.57
22259;BME280;11298;46.034;14.496;2022-07-29T07:50:53;98172.56;;;28.90;50.14
22259;BME280;11298;46.034;14.496;2022-07-29T07:53:21;98176.63;;;29.01;44.89
22259;BME280;11298;46.034;14.496;2022-07-29T07:55:48;98171.22;;;28.96;45.63
22259;BME280;11298;46.034;14.496;2022-07-29T07:58:35;98172.19;;;29.09;46.38
22259;BME280;11298;46.034;14.496;2022-07-29T08:01:03;98165.28;;;29.07;44.73
22259;BME280;11298;46.034;14.496;2022-07-29T08:03:30;98158.19;;;29.39;44.59
22259;BME280;11298;46.034;14.496;2022-07-29T08:05:57;98175.66;;;29.65;45.11
22259;BME280;11298;46.034;14.496;2022-07-29T08:08:24;98166.50;;;29.56;43.66
22259;BME280;11298;46.034;14.496;2022-07-29T08:10:51;98178.44;;;29.44;43.82
22259;BME280;11298;46.034;14.496;2022-07-29T08:13:20;98168.66;;;29.50;43.29
22259;BME280;11298;46.034;14.496;2022-07-29T08:15:48;98165.28;;;29.86;45.05
22259;BME280;11298;46.034;14.496;2022-07-29T08:18:25;98169.59;;;30.25;42.75
22259;BME280;11298;46.034;14.496;2022-07-29T08:20:53;98168.28;;;30.23;41.40
22259;BME280;11298;46.034;14.496;2022-07-29T08:23:21;98163.94;;;30.13;41.77
22259;BME280;11298;46.034;14.496;2022-07-29T08:25:50;98158.81;;;29.74;42.08
22259;BME280;11298;46.034;14.496;2022-07-29T08:28:20;98149.84;;;29.80;42.22
22259;BME280;11298;46.034;14.496;2022-07-29T08:30:51;98155.38;;;29.68;41.42
22259;BME280;11298;46.034;14.496;2022-07-29T08:33:18;98153.19;;;29.94;41.59
22259;BME280;11298;46.034;14.496;2022-07-29T08:35:46;98147.84;;;30.10;41.73
22259;BME280;11298;46.034;14.496;2022-07-29T08:38:13;98150.16;;;30.41;41.29
22259;BME280;11298;46.034;14.496;2022-07-29T08:40:40;98149.00;;;30.75;40.59
22259;BME280;11298;46.034;14.496;2022-07-29T08:43:13;98154.28;;;31.25;42.29
22259;BME280;11298;46.034;14.496;2022-07-29T08:45:43;98147.84;;;31.74;41.71
22259;BME280;11298;46.034;14.496;2022-07-29T08:48:23;98148.69;;;32.02;37.77
22259;BME280;11298;46.034;14.496;2022-07-29T08:50:55;98145.31;;;32.37;37.90
22259;BME280;11298;46.034;14.496;2022-07-29T08:53:26;98150.75;;;32.17;36.24
22259;BME280;11298;46.034;14.496;2022-07-29T08:55:54;98143.84;;;32.15;37.49
22259;BME280;11298;46.034;14.496;2022-07-29T08:58:22;98148.91;;;32.21;37.04
22259;BME280;11298;46.034;14.496;2022-07-29T09:00:55;98142.91;;;32.23;36.10
22259;BME280;11298;46.034;14.496;2022-07-29T09:03:25;98143.72;;;32.51;37.15
22259;BME280;11298;46.034;14.496;2022-07-29T09:05:54;98142.53;;;32.52;37.55
22259;BME280;11298;46.034;14.496;2022-07-29T09:08:21;98142.88;;;32.79;36.07
22259;BME280;11298;46.034;14.496;2022-07-29T09:10:48;98143.50;;;33.19;36.83
22259;BME280;11298;46.034;14.496;2022-07-29T09:13:15;98142.84;;;33.42;35.13
22259;BME280;11298;46.034;14.496;2022-07-29T09:15:43;98139.16;;;33.73;36.62
22259;BME280;11298;46.034;14.496;2022-07-29T09:18:11;98143.88;;;34.04;37.54
22259;BME280;11298;46.034;14.496;2022-07-29T09:20:56;98145.88;;;34.22;33.05
22259;BME280;11298;46.034;14.496;2022-07-29T09:23:59;98137.56;;;34.10;32.36
22259;BME280;11298;46.034;14.496;2022-07-29T09:26:31;98139.16;;;33.73;33.37
22259;BME280;11298;46.034;14.496;2022-07-29T09:28:59;98141.16;;;33.21;33.50
22259;BME280;11298;46.034;14.496;2022-07-29T09:31:33;98134.50;;;33.45;33.03
22259;BME280;11298;46.034;14.496;2022-07-29T09:34:02;98125.72;;;33.66;34.53
22259;BME280;11298;46.034;14.496;2022-07-29T09:36:29;98128.22;;;33.87;36.63
22259;BME280;11298;46.034;14.496;2022-07-29T09:39:00;98132.41;;;33.42;31.81
22259;BME280;11298;46.034;14.496;2022-07-29T09:41:29;98121.88;;;33.39;32.78
22259;BME280;11298;46.034;14.496;2022-07-29T09:43:57;98114.34;;;33.43;32.14
22259;BME280;11298;46.034;14.496;2022-07-29T09:46:25;98112.00;;;33.14;33.84
22259;BME280;11298;46.034;14.496;2022-07-29T09:49:12;98108.34;;;33.80;32.91
22259;BME280;11298;46.034;14.496;2022-07-29T09:51:40;98112.78;;;34.00;33.72
22259;BME280;11298;46.034;14.496;2022-07-29T09:54:24;98105.50;;;33.60;33.21
22259;BME280;11298;46.034;14.496;2022-07-29T09:56:55;98106.09;;;33.35;33.00
22259;BME280;11298;46.034;14.496;2022-07-29T09:59:23;98104.09;;;33.04;35.06
22259;BME280;11298;46.034;14.496;2022-07-29T10:01:53;98103.53;;;33.64;36.04
22259;BME280;11298;46.034;14.496;2022-07-29T10:04:21;98107.16;;;34.19;35.02
22259;BME280;11298;46.034;14.496;2022-07-29T10:06:59;98096.63;;;34.16;32.48
22259;BME280;11298;46.034;14.496;2022-07-29T10:09:32;98092.69;;;34.02;33.36
22259;BME280;11298;46.034;14.496;2022-07-29T10:12:11;98085.34;;;33.58;32.72
22259;BME280;11298;46.034;14.496;2022-07-29T10:14:41;98088.16;;;33.97;32.87
22259;BME280;11298;46.034;14.496;2022-07-29T10:17:11;98083.44;;;33.82;31.85
22259;BME280;11298;46.034;14.496;2022-07-29T10:19:39;98079.09;;;33.69;32.11
22259;BME280;11298;46.034;14.496;2022-07-29T10:22:07;98085.28;;;34.13;32.98
22259;BME280;11298;46.034;14.496;2022-07-29T10:24:36;98083.88;;;34.03;32.98
22259;BME280;11298;46.034;14.496;2022-07-29T10:27:06;98081.94;;;34.26;32.09
22259;BME280;11298;46.034;14.496;2022-07-29T10:29:34;98077.00;;;34.62;33.56
22259;BME280;11298;46.034;14.496;2022-07-29T10:43:37;98074.38;;;34.96;33.77
22259;BME280;11298;46.034;14.496;2022-07-29T10:46:08;98065.78;;;35.15;29.91
22259;BME280;11298;46.034;14.496;2022-07-29T10:49:09;98063.84;;;35.19;29.72
22259;BME280;11298;46.034;14.496;2022-07-29T10:54:18;98051.34;;;35.46;28.53
22259;BME280;11298;46.034;14.496;2022-07-29T10:56:47;98049.66;;;35.98;29.31
22259;BME280;11298;46.034;14.496;2022-07-29T11:05:14;98048.63;;;36.17;27.97
22259;BME280;11298;46.034;14.496;2022-07-29T11:10:47;98048.16;;;36.11;29.63
22259;BME280;11298;46.034;14.496;2022-07-29T11:16:12;98046.38;;;36.70;29.94
22259;BME280;11298;46.034;14.496;2022-07-29T11:21:41;98022.22;;;36.36;30.06
22259;BME280;11298;46.034;14.496;2022-07-29T11:24:29;98022.25;;;36.43;30.25
22259;BME280;11298;46.034;14.496;2022-07-29T11:29:58;98020.19;;;36.80;26.82
22259;BME280;11298;46.034;14.496;2022-07-29T11:32:39;98021.22;;;37.09;27.33
22259;BME280;11298;46.034;14.496;2022-07-29T11:35:14;98015.72;;;37.27;28.11
22259;BME280;11298;46.034;14.496;2022-07-29T11:41:24;98018.81;;;37.08;29.17
22259;BME280;11298;46.034;14.496;2022-07-29T11:43:53;98011.91;;;37.09;28.55
22259;BME280;11298;46.034;14.496;2022-07-29T11:46:47;98004.78;;;37.29;29.26
22259;BME280;11298;46.034;14.496;2022-07-29T11:49:21;98003.69;;;37.51;27.78
22259;BME280;11298;46.034;14.496;2022-07-29T11:51:59;98008.19;;;36.94;26.95
22259;BME280;11298;46.034;14.496;2022-07-29T11:54:33;98001.41;;;36.58;27.97
22259;BME280;11298;46.034;14.496;2022-07-29T11:57:20;97998.03;;;36.45;28.09
22259;BME280;11298;46.034;14.496;2022-07-29T11:59:48;97989.22;;;36.13;28.00
22259;BME280;11298;46.034;14.496;2022-07-29T12:02:16;97986.19;;;35.92;27.72
22259;BME280;11298;46.034;14.496;2022-07-29T12:05:03;97982.81;;;35.49;29.26
22259;BME280;11298;46.034;14.496;2022-07-29T12:07:37;97982.72;;;35.76;28.86
22259;BME280;11298;46.034;14.496;2022-07-29T12:10:07;97991.47;;;36.31;28.34
22259;BME280;11298;46.034;14.496;2022-07-29T12:12:51;97994.97;;;36.61;29.37
22259;BME280;11298;46.034;14.496;2022-07-29T12:15:20;97981.19;;;36.59;27.62
22259;BME280;11298;46.034;14.496;2022-07-29T12:17:48;97983.09;;;36.45;27.86
22259;BME280;11298;46.034;14.496;2022-07-29T12:20:28;97980.03;;;36.23;27.85
22259;BME280;11298;46.034;14.496;2022-07-29T12:22:56;97975.81;;;35.73;28.79
22259;BME280;11298;46.034;14.496;2022-07-29T12:25:24;97979.88;;;35.42;29.23
22259;BME280;11298;46.034;14.496;2022-07-29T12:28:03;97976.31;;;35.19;28.88
22259;BME280;11298;46.034;14.496;2022-07-29T12:30:39;97972.09;;;35.32;28.64
22259;BME280;11298;46.034;14.496;2022-07-29T12:33:34;97969.75;;;35.71;30.83
22259;BME280;11298;46.034;14.496;2022-07-29T12:36:02;97975.53;;;36.19;28.83
22259;BME280;11298;46.034;14.496;2022-07-29T12:38:40;97962.56;;;36.14;29.00
22259;BME280;11298;46.034;14.496;2022-07-29T12:41:07;97971.41;;;36.09;29.77
22259;BME280;11298;46.034;14.496;2022-07-29T12:43:34;97965.72;;;36.06;28.51
22259;BME280;11298;46.034;14.496;2022-07-29T12:46:13;97956.50;;;36.12;28.82
22259;BME280;11298;46.034;14.496;2022-07-29T12:48:43;97956.66;;;36.27;29.23
22259;BME280;11298;46.034;14.496;2022-07-29T12:51:11;97966.25;;;36.18;27.85
22259;BME280;11298;46.034;14.496;2022-07-29T12:53:39;97957.47;;;35.56;28.83
22259;BME280;11298;46.034;14.496;2022-07-29T12:56:06;97958.28;;;35.57;28.77
22259;BME280;11298;46.034;14.496;2022-07-29T12:59:19;97946.09;;;35.49;28.35
22259;BME280;11298;46.034;14.496;2022-07-29T13:01:49;97953.13;;;35.63;28.81
22259;BME280;11298;46.034;14.496;2022-07-29T13:04:31;97947.94;;;36.05;31.95
22259;BME280;11298;46.034;14.496;2022-07-29T13:07:04;97946.28;;;36.38;32.39
22259;BME280;11298;46.034;14.496;2022-07-29T13:09:44;97934.72;;;36.61;29.93
22259;BME280;11298;46.034;14.496;2022-07-29T13:12:15;97941.41;;;36.89;28.48
22259;BME280;11298;46.034;14.496;2022-07-29T13:14:47;97934.34;;;36.62;27.38
22259;BME280;11298;46.034;14.496;2022-07-29T13:17:19;97931.13;;;36.64;27.95
22259;BME280;11298;46.034;14.496;2022-07-29T13:20:04;97930.25;;;36.56;27.84
22259;BME280;11298;46.034;14.496;2022-07-29T13:22:35;97926.25;;;36.64;28.42
22259;BME280;11298;46.034;14.496;2022-07-29T13:25:03;97914.22;;;36.74;28.23
22259;BME280;11298;46.034;14.496;2022-07-29T13:27:32;97912.25;;;36.27;28.13
22259;BME280;11298;46.034;14.496;2022-07-29T13:30:01;97916.44;;;36.07;27.75
22259;BME280;11298;46.034;14.496;2022-07-29T13:32:30;97905.41;;;36.32;28.45
22259;BME280;11298;46.034;14.496;2022-07-29T13:35:00;97903.41;;;36.32;27.69
22259;BME280;11298;46.034;14.496;2022-07-29T13:37:32;97907.44;;;36.31;27.64
22259;BME280;11298;46.034;14.496;2022-07-29T13:40:02;97903.13;;;36.07;28.54
22259;BME280;11298;46.034;14.496;2022-07-29T13:42:31;97903.13;;;36.07;29.23
22259;BME280;11298;46.034;14.496;2022-07-29T13:44:59;97900.94;;;36.27;27.92
22259;BME280;11298;46.034;14.496;2022-07-29T13:47:26;97905.78;;;36.27;29.06
22259;BME280;11298;46.034;14.496;2022-07-29T13:50:05;97894.56;;;35.97;28.77
22259;BME280;11298;46.034;14.496;2022-07-29T13:52:33;97888.63;;;35.72;28.31
22259;BME280;11298;46.034;14.496;2022-07-29T13:55:02;97889.44;;;36.13;31.36
22259;BME280;11298;46.034;14.496;2022-07-29T13:57:29;97874.81;;;36.48;28.95
22259;BME280;11298;46.034;14.496;2022-07-29T13:59:56;97872.44;;;36.53;28.40
22259;BME280;11298;46.034;14.496;2022-07-29T14:02:24;97869.16;;;36.00;28.57